Aviation Digital Data Service (ADDS)

Output produced by METARs form (2218 UTC 01 October 2016)
found at http://aviationweather.gov/adds/metars/
 
KMBS 012140Z 0122/0218 06005KT 6SM -SHRA BR BKN012 OVC060 
     FM012300 VRB03KT 6SM -SHRA BR BKN025 OVC050 
     FM020700 23003KT 4SM BR BKN025 
     FM021500 27004KT P6SM OVC020